createdAt,value
2022-08-20T00:00:40.512Z,20.84
2022-08-20T00:01:40.585Z,20.84
2022-08-20T00:02:40.490Z,20.85
2022-08-20T00:03:40.481Z,20.84
2022-08-20T00:04:40.468Z,20.82
2022-08-20T00:05:40.457Z,20.82
2022-08-20T00:06:40.508Z,20.80
2022-08-20T00:07:40.434Z,20.76
2022-08-20T00:08:40.423Z,20.76
2022-08-20T00:09:40.418Z,20.76
2022-08-20T00:10:40.402Z,20.74
2022-08-20T00:11:40.407Z,20.76
2022-08-20T00:12:40.382Z,20.74
2022-08-20T00:13:40.376Z,20.74
2022-08-20T00:14:40.357Z,20.74
2022-08-20T00:15:40.354Z,20.73
2022-08-20T00:16:40.351Z,20.73
2022-08-20T00:17:41.152Z,20.73
2022-08-20T00:18:40.316Z,20.73
2022-08-20T00:19:40.311Z,20.73
2022-08-20T00:20:40.297Z,20.74
2022-08-20T00:21:40.301Z,20.76
2022-08-20T00:22:40.274Z,20.76
2022-08-20T00:23:40.269Z,20.74
2022-08-20T00:24:40.254Z,20.73
2022-08-20T00:25:40.243Z,20.73
2022-08-20T00:26:51.856Z,20.70
2022-08-20T00:27:41.239Z,20.67
2022-08-20T00:28:40.229Z,20.69
2022-08-20T00:29:40.200Z,20.69
2022-08-20T00:30:40.186Z,20.69
2022-08-20T00:31:40.180Z,20.70
2022-08-20T00:32:40.181Z,20.70
2022-08-20T00:33:40.156Z,20.67
2022-08-20T00:34:40.145Z,20.66
2022-08-20T00:35:40.144Z,20.69
2022-08-20T00:36:40.127Z,20.67
2022-08-20T00:37:40.135Z,20.67
2022-08-20T00:38:40.110Z,20.69
2022-08-20T00:39:40.228Z,20.67
2022-08-20T00:40:40.082Z,20.67
2022-08-20T00:41:40.071Z,20.67
2022-08-20T00:42:40.075Z,20.69
2022-08-20T00:43:40.061Z,20.69
2022-08-20T00:44:40.040Z,20.67
2022-08-20T00:45:40.028Z,20.67
2022-08-20T00:46:40.014Z,20.64
2022-08-20T00:47:40.022Z,20.61
2022-08-20T00:48:39.996Z,20.59
2022-08-20T00:49:39.998Z,20.58
2022-08-20T00:50:39.974Z,20.57
2022-08-20T00:51:39.965Z,20.58
2022-08-20T00:52:39.965Z,20.59
2022-08-20T00:53:39.949Z,20.57
2022-08-20T00:54:39.931Z,20.54
2022-08-20T00:55:40.666Z,20.54
2022-08-20T00:56:39.909Z,20.52
2022-08-20T00:57:58.903Z,20.51
2022-08-20T00:58:40.888Z,20.50
2022-08-20T00:59:39.882Z,20.48
2022-08-20T01:00:39.865Z,20.42
2022-08-20T01:01:56.280Z,20.42
2022-08-20T01:02:40.859Z,20.42
2022-08-20T01:03:39.841Z,20.39
2022-08-20T01:04:39.825Z,20.38
2022-08-20T01:05:39.812Z,20.36
2022-08-20T01:06:39.803Z,20.35
2022-08-20T01:07:39.799Z,20.35
2022-08-20T01:08:39.798Z,20.33
2022-08-20T01:09:58.487Z,20.35
2022-08-20T01:10:40.759Z,20.36
2022-08-20T01:11:39.750Z,20.35
2022-08-20T01:12:39.766Z,20.33
2022-08-20T01:13:39.746Z,20.32
2022-08-20T01:14:39.717Z,20.32
2022-08-20T01:15:43.024Z,20.33
2022-08-20T01:16:39.696Z,20.33
2022-08-20T01:17:39.685Z,20.31
2022-08-20T01:18:39.699Z,20.31
2022-08-20T01:19:39.662Z,20.29
2022-08-20T01:20:39.660Z,20.28
2022-08-20T01:21:39.645Z,20.28
2022-08-20T01:22:39.665Z,20.26
2022-08-20T01:23:39.628Z,20.28
2022-08-20T01:24:39.613Z,20.26
2022-08-20T01:25:39.601Z,20.28
2022-08-20T01:26:39.586Z,20.28
2022-08-20T01:27:42.888Z,20.24
2022-08-20T01:28:39.568Z,20.26
2022-08-20T01:29:39.557Z,20.21
2022-08-20T01:30:39.544Z,20.24
2022-08-20T01:31:39.537Z,20.23
2022-08-20T01:32:39.534Z,20.20
2022-08-20T01:33:39.519Z,20.21
2022-08-20T01:34:39.502Z,20.23
2022-08-20T01:35:39.492Z,20.23
2022-08-20T01:36:45.553Z,20.21
2022-08-20T01:37:40.482Z,20.21
2022-08-20T01:38:39.461Z,20.21
2022-08-20T01:39:39.505Z,20.20
2022-08-20T01:40:39.439Z,20.18
2022-08-20T01:41:39.433Z,20.16
2022-08-20T01:42:39.433Z,20.17
2022-08-20T01:43:40.404Z,20.18
2022-08-20T01:44:39.406Z,20.18
2022-08-20T01:45:40.190Z,20.20
2022-08-20T01:46:43.649Z,20.18
2022-08-20T01:47:39.381Z,20.18
2022-08-20T01:48:39.356Z,20.20
2022-08-20T01:49:39.344Z,20.17
2022-08-20T01:50:39.334Z,20.16
2022-08-20T01:51:39.320Z,20.13
2022-08-20T01:52:39.325Z,20.13
2022-08-20T01:53:39.299Z,20.08
2022-08-20T01:54:39.284Z,20.10
2022-08-20T01:55:39.281Z,20.11
2022-08-20T01:56:39.277Z,20.10
2022-08-20T01:57:39.267Z,20.11
2022-08-20T01:58:39.250Z,20.10
2022-08-20T01:59:39.234Z,20.10
2022-08-20T02:00:39.256Z,20.06
2022-08-20T02:01:46.151Z,20.02
2022-08-20T02:02:40.214Z,20.01
2022-08-20T02:03:44.424Z,19.99
2022-08-20T02:04:40.183Z,20.01
2022-08-20T02:05:39.171Z,20.01
2022-08-20T02:06:39.163Z,20.03
2022-08-20T02:07:40.159Z,20.03
2022-08-20T02:08:39.139Z,20.06
2022-08-20T02:09:39.127Z,20.06
2022-08-20T02:10:39.116Z,20.06
2022-08-20T02:11:39.105Z,20.10
2022-08-20T02:12:39.109Z,20.10
2022-08-20T02:13:39.089Z,20.13
2022-08-20T02:14:39.075Z,20.13
2022-08-20T02:15:39.959Z,20.13
2022-08-20T02:16:39.054Z,20.14
2022-08-20T02:17:39.056Z,20.14
2022-08-20T02:18:39.030Z,20.11
2022-08-20T02:19:39.025Z,20.10
2022-08-20T02:20:39.006Z,20.10
2022-08-20T02:21:38.998Z,20.06
2022-08-20T02:22:39.000Z,20.03
2022-08-20T02:23:38.978Z,20.01
2022-08-20T02:24:38.964Z,19.99
2022-08-20T02:25:38.960Z,19.96
2022-08-20T02:26:38.946Z,19.95
2022-08-20T02:27:38.935Z,19.94
2022-08-20T02:28:38.966Z,19.92
2022-08-20T02:29:38.913Z,19.92
2022-08-20T02:30:38.902Z,19.92
2022-08-20T02:31:43.570Z,19.92
2022-08-20T02:32:39.877Z,19.91
2022-08-20T02:33:39.156Z,19.91
2022-08-20T02:34:38.862Z,19.92
2022-08-20T02:35:38.852Z,19.94
2022-08-20T02:36:38.835Z,19.95
2022-08-20T02:37:38.829Z,19.95
2022-08-20T02:38:38.848Z,19.95
2022-08-20T02:39:39.768Z,19.94
2022-08-20T02:40:38.796Z,19.91
2022-08-20T02:41:38.783Z,19.92
2022-08-20T02:42:38.793Z,19.92
2022-08-20T02:43:38.768Z,19.88
2022-08-20T02:44:38.749Z,19.91
2022-08-20T02:45:38.741Z,19.91
2022-08-20T02:46:38.730Z,19.88
2022-08-20T02:47:38.736Z,19.87
2022-08-20T02:48:38.706Z,19.87
2022-08-20T02:49:38.696Z,19.86
2022-08-20T02:50:38.686Z,19.86
2022-08-20T02:51:38.677Z,19.86
2022-08-20T02:52:38.695Z,19.86
2022-08-20T02:53:38.658Z,19.86
2022-08-20T02:54:38.649Z,19.84
2022-08-20T02:55:38.640Z,19.86
2022-08-20T02:56:38.624Z,19.84
2022-08-20T02:57:38.624Z,19.86
2022-08-20T02:58:38.600Z,19.88
2022-08-20T02:59:38.594Z,19.87
2022-08-20T03:00:38.846Z,19.87
2022-08-20T03:01:38.647Z,19.88
2022-08-20T03:02:38.577Z,19.88
2022-08-20T03:03:39.216Z,19.86
2022-08-20T03:04:38.538Z,19.86
2022-08-20T03:05:39.167Z,19.87
2022-08-20T03:06:38.515Z,19.84
2022-08-20T03:07:38.528Z,19.83
2022-08-20T03:08:38.518Z,19.86
2022-08-20T03:09:38.488Z,19.83
2022-08-20T03:10:38.482Z,19.83
2022-08-20T03:11:38.463Z,19.83
2022-08-20T03:12:38.467Z,19.83
2022-08-20T03:13:38.463Z,19.84
2022-08-20T03:14:38.430Z,19.86
2022-08-20T03:15:38.420Z,19.87
2022-08-20T03:16:38.410Z,19.87
2022-08-20T03:17:38.415Z,19.88
2022-08-20T03:18:38.389Z,19.91
2022-08-20T03:19:38.379Z,19.92
2022-08-20T03:20:38.379Z,19.91
2022-08-20T03:21:38.357Z,19.91
2022-08-20T03:22:38.362Z,19.87
2022-08-20T03:23:40.372Z,19.87
2022-08-20T03:24:38.327Z,19.87
2022-08-20T03:25:38.313Z,19.84
2022-08-20T03:26:38.302Z,19.83
2022-08-20T03:27:38.308Z,19.80
2022-08-20T03:28:38.281Z,19.78
2022-08-20T03:29:38.289Z,19.77
2022-08-20T03:30:38.261Z,19.76
2022-08-20T03:31:38.251Z,19.73
2022-08-20T03:32:38.263Z,19.68
2022-08-20T03:33:38.226Z,19.66
2022-08-20T03:34:39.221Z,19.65
2022-08-20T03:35:38.204Z,19.63
2022-08-20T03:36:38.199Z,19.63
2022-08-20T03:37:38.182Z,19.65
2022-08-20T03:38:38.189Z,19.66
2022-08-20T03:39:38.204Z,19.63
2022-08-20T03:40:38.153Z,19.63
2022-08-20T03:41:38.141Z,19.61
2022-08-20T03:42:38.137Z,19.62
2022-08-20T03:43:38.152Z,19.62
2022-08-20T03:44:38.112Z,19.63
2022-08-20T03:45:38.097Z,19.63
2022-08-20T03:46:38.091Z,19.62
2022-08-20T03:47:38.082Z,19.63
2022-08-20T03:48:38.083Z,19.63
2022-08-20T03:49:38.057Z,19.62
2022-08-20T03:50:38.050Z,19.63
2022-08-20T03:51:45.875Z,19.61
2022-08-20T03:52:39.023Z,19.56
2022-08-20T03:53:38.031Z,19.56
2022-08-20T03:54:38.004Z,19.56
2022-08-20T03:55:37.996Z,19.55
2022-08-20T03:56:37.984Z,19.55
2022-08-20T03:57:37.978Z,19.55
2022-08-20T03:58:37.978Z,19.56
2022-08-20T03:59:37.953Z,19.56
2022-08-20T04:00:37.950Z,19.56
2022-08-20T04:01:45.855Z,19.56
2022-08-20T04:02:38.922Z,19.58
2022-08-20T04:03:37.926Z,19.61
2022-08-20T04:04:37.906Z,19.61
2022-08-20T04:05:37.889Z,19.59
2022-08-20T04:06:37.881Z,19.62
2022-08-20T04:07:37.887Z,19.62
2022-08-20T04:08:37.859Z,19.61
2022-08-20T04:09:37.848Z,19.61
2022-08-20T04:10:37.840Z,19.61
2022-08-20T04:11:37.826Z,19.62
2022-08-20T04:12:37.822Z,19.65
2022-08-20T04:13:40.201Z,19.66
2022-08-20T04:14:37.803Z,19.69
2022-08-20T04:15:37.785Z,19.71
2022-08-20T04:16:37.799Z,19.73
2022-08-20T04:17:37.764Z,19.73
2022-08-20T04:18:37.768Z,19.74
2022-08-20T04:19:37.744Z,19.74
2022-08-20T04:20:37.739Z,19.74
2022-08-20T04:21:37.724Z,19.74
2022-08-20T04:22:37.714Z,19.74
2022-08-20T04:23:37.720Z,19.74
2022-08-20T04:24:37.694Z,19.74
2022-08-20T04:25:38.256Z,19.74
2022-08-20T04:26:38.674Z,19.76
2022-08-20T04:27:37.667Z,19.76
2022-08-20T04:28:37.669Z,19.77
2022-08-20T04:29:37.640Z,19.77
2022-08-20T04:30:37.632Z,19.78
2022-08-20T04:31:37.619Z,19.77
2022-08-20T04:32:37.618Z,19.78
2022-08-20T04:33:37.610Z,19.78
2022-08-20T04:34:37.592Z,19.80
2022-08-20T04:35:37.584Z,19.80
2022-08-20T04:36:37.570Z,19.83
2022-08-20T04:37:37.559Z,19.81
2022-08-20T04:38:48.190Z,19.83
2022-08-20T04:39:38.572Z,19.81
2022-08-20T04:40:37.526Z,19.83
2022-08-20T04:41:37.515Z,19.83
2022-08-20T04:42:37.521Z,19.84
2022-08-20T04:43:37.507Z,19.84
2022-08-20T04:44:37.485Z,19.84
2022-08-20T04:45:37.475Z,19.84
2022-08-20T04:46:37.465Z,19.86
2022-08-20T04:47:37.452Z,19.86
2022-08-20T04:48:37.473Z,19.86
2022-08-20T04:49:37.433Z,19.86
2022-08-20T04:50:37.422Z,19.86
2022-08-20T04:51:37.410Z,19.86
2022-08-20T04:52:37.402Z,19.84
2022-08-20T04:53:37.403Z,19.83
2022-08-20T04:54:37.379Z,19.81
2022-08-20T04:55:37.369Z,19.80
2022-08-20T04:56:37.359Z,19.78
2022-08-20T04:57:37.362Z,19.80
2022-08-20T04:58:37.350Z,19.80
2022-08-20T04:59:37.330Z,19.77
2022-08-20T05:00:37.317Z,19.76
2022-08-20T05:01:38.317Z,19.77
2022-08-20T05:02:37.301Z,19.78
2022-08-20T05:03:37.309Z,19.78
2022-08-20T05:04:37.276Z,19.78
2022-08-20T05:05:37.266Z,19.78
2022-08-20T05:06:37.256Z,19.78
2022-08-20T05:07:37.247Z,19.78
2022-08-20T05:08:37.233Z,19.81
2022-08-20T05:09:43.782Z,19.80
2022-08-20T05:10:38.212Z,19.81
2022-08-20T05:11:37.232Z,19.80
2022-08-20T05:12:37.194Z,19.80
2022-08-20T05:13:37.182Z,19.81
2022-08-20T05:14:37.187Z,19.83
2022-08-20T05:15:37.160Z,19.81
2022-08-20T05:16:37.149Z,19.80
2022-08-20T05:17:37.137Z,19.81
2022-08-20T05:18:37.133Z,19.80
2022-08-20T05:19:38.943Z,19.81
2022-08-20T05:20:37.110Z,19.81
2022-08-20T05:21:37.110Z,19.84
2022-08-20T05:22:37.093Z,19.86
2022-08-20T05:23:37.092Z,19.86
2022-08-20T05:24:37.067Z,19.86
2022-08-20T05:25:37.055Z,19.86
2022-08-20T05:26:37.046Z,19.84
2022-08-20T05:27:37.037Z,19.86
2022-08-20T05:28:54.427Z,19.86
2022-08-20T05:29:38.011Z,19.88
2022-08-20T05:30:37.007Z,19.91
2022-08-20T05:31:36.991Z,19.94
2022-08-20T05:32:44.547Z,19.95
2022-08-20T05:33:37.983Z,19.98
2022-08-20T05:34:36.964Z,19.98
2022-08-20T05:35:36.952Z,20.02
2022-08-20T05:36:36.942Z,20.05
2022-08-20T05:37:36.936Z,20.06
2022-08-20T05:38:36.944Z,20.06
2022-08-20T05:39:37.645Z,20.06
2022-08-20T05:40:36.901Z,20.08
2022-08-20T05:41:36.887Z,20.10
2022-08-20T05:42:36.878Z,20.06
2022-08-20T05:43:36.867Z,20.03
2022-08-20T05:44:36.869Z,20.02
2022-08-20T05:45:36.844Z,20.01
2022-08-20T05:46:36.840Z,20.02
2022-08-20T05:47:37.241Z,20.01
2022-08-20T05:48:37.831Z,20.02
2022-08-20T05:49:36.804Z,19.99
2022-08-20T05:50:36.793Z,19.98
2022-08-20T05:51:36.780Z,19.94
2022-08-20T05:52:36.774Z,19.92
2022-08-20T05:53:36.794Z,19.88
2022-08-20T05:54:36.786Z,19.91
2022-08-20T05:55:36.739Z,19.88
2022-08-20T05:56:36.729Z,19.88
2022-08-20T05:57:36.719Z,19.88
2022-08-20T05:58:36.729Z,19.88
2022-08-20T05:59:36.701Z,19.84
2022-08-20T06:00:36.689Z,19.83
2022-08-20T06:01:36.724Z,19.81
2022-08-20T06:02:36.672Z,19.78
2022-08-20T06:03:36.716Z,19.78
2022-08-20T06:04:36.644Z,19.78
2022-08-20T06:05:36.644Z,19.80
2022-08-20T06:06:44.707Z,19.83
2022-08-20T06:07:37.613Z,19.83
2022-08-20T06:08:36.606Z,19.84
2022-08-20T06:09:36.603Z,19.81
2022-08-20T06:10:36.578Z,19.81
2022-08-20T06:11:37.570Z,19.83
2022-08-20T06:12:36.560Z,19.81
2022-08-20T06:13:36.553Z,19.80
2022-08-20T06:14:36.556Z,19.80
2022-08-20T06:15:36.526Z,19.80
2022-08-20T06:16:37.139Z,19.78
2022-08-20T06:17:39.576Z,19.74
2022-08-20T06:18:36.496Z,19.73
2022-08-20T06:19:36.519Z,19.73
2022-08-20T06:20:36.474Z,19.71
2022-08-20T06:21:36.464Z,19.69
2022-08-20T06:22:36.453Z,19.66
2022-08-20T06:23:46.290Z,19.63
2022-08-20T06:24:37.470Z,19.63
2022-08-20T06:25:38.053Z,19.62
2022-08-20T06:26:37.290Z,19.62
2022-08-20T06:27:36.403Z,19.59
2022-08-20T06:28:36.391Z,19.62
2022-08-20T06:29:36.393Z,19.63
2022-08-20T06:30:37.291Z,19.65
2022-08-20T06:31:37.294Z,19.66
2022-08-20T06:32:37.297Z,19.66
2022-08-20T06:33:36.336Z,19.68
2022-08-20T06:34:36.368Z,19.66
2022-08-20T06:35:36.344Z,19.69
2022-08-20T06:36:36.307Z,19.71
2022-08-20T06:37:36.297Z,19.71
2022-08-20T06:38:38.769Z,19.69
2022-08-20T06:39:36.331Z,19.69
2022-08-20T06:40:36.797Z,19.73
2022-08-20T06:41:37.133Z,19.73
2022-08-20T06:42:36.243Z,19.76
2022-08-20T06:43:36.231Z,19.78
2022-08-20T06:44:36.235Z,19.80
2022-08-20T06:45:36.208Z,19.81
2022-08-20T06:46:36.201Z,19.83
2022-08-20T06:47:36.216Z,19.81
2022-08-20T06:48:36.177Z,19.83
2022-08-20T06:49:36.180Z,19.81
2022-08-20T06:50:36.161Z,19.83
2022-08-20T06:51:36.145Z,19.84
2022-08-20T06:52:51.715Z,19.86
2022-08-20T06:53:37.127Z,19.87
2022-08-20T06:54:36.128Z,19.87
2022-08-20T06:55:36.102Z,19.86
2022-08-20T06:56:36.093Z,19.87
2022-08-20T06:57:36.083Z,19.88
2022-08-20T06:58:37.691Z,19.92
2022-08-20T06:59:36.076Z,19.94
2022-08-20T07:00:36.055Z,19.98
2022-08-20T07:01:36.080Z,20.01
2022-08-20T07:02:36.034Z,20.05
2022-08-20T07:03:36.038Z,20.08
2022-08-20T07:04:36.024Z,20.13
2022-08-20T07:05:35.996Z,20.17
2022-08-20T07:06:35.990Z,20.20
2022-08-20T07:07:35.986Z,20.24
2022-08-20T07:08:35.970Z,20.29
2022-08-20T07:09:35.975Z,20.35
2022-08-20T07:10:35.950Z,20.39
2022-08-20T07:11:35.935Z,20.38
2022-08-20T07:12:35.923Z,20.33
2022-08-20T07:13:35.912Z,20.35
2022-08-20T07:14:35.929Z,20.31
2022-08-20T07:15:35.902Z,20.31
2022-08-20T07:16:35.886Z,20.31
2022-08-20T07:17:35.870Z,20.31
2022-08-20T07:18:35.860Z,20.28
2022-08-20T07:19:35.864Z,20.32
2022-08-20T07:20:35.852Z,20.29
2022-08-20T07:21:35.824Z,20.31
2022-08-20T07:22:35.816Z,20.32
2022-08-20T07:23:35.809Z,20.32
2022-08-20T07:24:39.069Z,20.35
2022-08-20T07:25:36.795Z,20.35
2022-08-20T07:26:35.775Z,20.36
2022-08-20T07:27:35.765Z,20.39
2022-08-20T07:28:35.756Z,20.38
2022-08-20T07:29:35.743Z,20.38
2022-08-20T07:30:55.836Z,20.39
2022-08-20T07:31:36.718Z,20.36
2022-08-20T07:32:39.485Z,20.35
2022-08-20T07:33:35.741Z,20.33
2022-08-20T07:34:35.694Z,20.32
2022-08-20T07:35:35.703Z,20.32
2022-08-20T07:36:35.710Z,20.33
2022-08-20T07:37:35.680Z,20.35
2022-08-20T07:38:35.642Z,20.38
2022-08-20T07:39:35.686Z,20.41
2022-08-20T07:40:35.640Z,20.47
2022-08-20T07:41:35.618Z,20.54
2022-08-20T07:42:35.605Z,20.59
2022-08-20T07:43:35.602Z,20.62
2022-08-20T07:44:35.580Z,20.61
2022-08-20T07:45:35.588Z,20.58
2022-08-20T07:46:35.559Z,20.52
2022-08-20T07:47:35.547Z,20.48
2022-08-20T07:48:35.536Z,20.39
2022-08-20T07:49:35.526Z,20.39
2022-08-20T07:50:35.533Z,20.29
2022-08-20T07:51:35.509Z,20.24
2022-08-20T07:52:35.493Z,20.21
2022-08-20T07:53:36.241Z,20.20
2022-08-20T07:54:35.469Z,20.24
2022-08-20T07:55:35.480Z,20.31
2022-08-20T07:56:35.452Z,20.33
2022-08-20T07:57:35.443Z,20.38
2022-08-20T07:58:35.431Z,20.43
2022-08-20T07:59:35.419Z,20.54
2022-08-20T08:00:35.508Z,20.57
2022-08-20T08:01:35.410Z,20.57
2022-08-20T08:02:35.387Z,20.59
2022-08-20T08:03:39.804Z,20.62
2022-08-20T08:04:36.363Z,20.62
2022-08-20T08:05:35.389Z,20.67
2022-08-20T08:06:35.341Z,20.70
2022-08-20T08:07:35.334Z,20.73
2022-08-20T08:08:35.320Z,20.74
2022-08-20T08:09:35.313Z,20.77
2022-08-20T08:10:35.317Z,20.80
2022-08-20T08:11:35.289Z,20.82
2022-08-20T08:12:35.280Z,20.87
2022-08-20T08:13:35.270Z,20.91
2022-08-20T08:14:35.253Z,20.95
2022-08-20T08:15:35.257Z,20.98
2022-08-20T08:16:35.273Z,21.04
2022-08-20T08:17:35.225Z,21.14
2022-08-20T08:18:35.215Z,21.22
2022-08-20T08:19:35.214Z,21.25
2022-08-20T08:20:35.193Z,21.32
2022-08-20T08:21:36.195Z,21.37
2022-08-20T08:22:35.174Z,21.38
2022-08-20T08:23:35.164Z,21.40
2022-08-20T08:24:35.151Z,21.43
2022-08-20T08:25:35.147Z,21.47
2022-08-20T08:26:35.145Z,21.52
2022-08-20T08:27:35.123Z,21.58
2022-08-20T08:28:35.110Z,21.62
2022-08-20T08:29:35.102Z,21.72
2022-08-20T08:30:35.102Z,21.72
2022-08-20T08:31:35.089Z,21.75
2022-08-20T08:32:35.070Z,21.74
2022-08-20T08:33:35.059Z,21.79
2022-08-20T08:34:35.046Z,21.83
2022-08-20T08:35:35.053Z,21.90
2022-08-20T08:36:35.025Z,21.96
2022-08-20T08:37:35.033Z,21.91
2022-08-20T08:38:35.005Z,21.80
2022-08-20T08:39:35.227Z,21.72
2022-08-20T08:40:35.006Z,21.69
2022-08-20T08:41:34.975Z,21.61
2022-08-20T08:42:34.964Z,21.61
2022-08-20T08:43:34.957Z,21.54
2022-08-20T08:44:34.945Z,21.43
2022-08-20T08:45:34.937Z,21.37
2022-08-20T08:46:34.935Z,21.31
2022-08-20T08:47:34.914Z,21.32
2022-08-20T08:48:34.901Z,21.35
2022-08-20T08:49:38.203Z,21.34
2022-08-20T08:50:53.823Z,21.32
2022-08-20T08:51:35.885Z,21.27
2022-08-20T08:52:34.861Z,21.24
2022-08-20T08:53:34.854Z,21.22
2022-08-20T08:54:34.841Z,21.22
2022-08-20T08:55:34.831Z,21.22
2022-08-20T08:56:34.835Z,21.24
2022-08-20T08:57:34.813Z,21.27
2022-08-20T08:58:34.826Z,21.24
2022-08-20T08:59:58.224Z,21.19
2022-08-20T09:00:35.776Z,21.19
2022-08-20T09:01:54.119Z,21.17
2022-08-20T09:02:35.809Z,21.12
2022-08-20T09:03:34.773Z,21.06
2022-08-20T09:04:34.737Z,21.04
2022-08-20T09:05:34.726Z,21.04
2022-08-20T09:06:34.730Z,20.99
2022-08-20T09:07:34.706Z,21.03
2022-08-20T09:08:34.700Z,21.03
2022-08-20T09:09:34.689Z,20.97
2022-08-20T09:10:34.673Z,21.01
2022-08-20T09:11:34.719Z,21.07
2022-08-20T09:12:34.694Z,21.16
2022-08-20T09:13:34.643Z,21.24
2022-08-20T09:14:34.658Z,21.34
2022-08-20T09:15:34.624Z,21.37
2022-08-20T09:16:52.722Z,21.40
2022-08-20T09:17:35.602Z,21.47
2022-08-20T09:18:34.592Z,21.54
2022-08-20T09:19:34.582Z,21.58
2022-08-20T09:20:34.571Z,21.61
2022-08-20T09:21:34.575Z,21.62
2022-08-20T09:22:34.547Z,21.64
2022-08-20T09:23:34.549Z,21.62
2022-08-20T09:24:34.529Z,21.67
2022-08-20T09:25:34.519Z,21.69
2022-08-20T09:26:37.479Z,21.68
2022-08-20T09:27:34.502Z,21.75
2022-08-20T09:28:34.901Z,21.84
2022-08-20T09:29:34.477Z,21.96
2022-08-20T09:30:34.468Z,22.07
2022-08-20T09:31:34.469Z,22.20
2022-08-20T09:32:34.454Z,22.28
2022-08-20T09:33:34.448Z,22.37
2022-08-20T09:34:34.426Z,22.45
2022-08-20T09:35:34.413Z,22.42
2022-08-20T09:36:34.415Z,22.36
2022-08-20T09:37:37.521Z,22.28
2022-08-20T09:38:34.384Z,22.27
2022-08-20T09:39:34.419Z,22.27
2022-08-20T09:40:34.363Z,22.22
2022-08-20T09:41:34.589Z,22.12
2022-08-20T09:42:38.800Z,22.07
2022-08-20T09:43:35.342Z,22.18
2022-08-20T09:44:34.320Z,22.21
2022-08-20T09:45:34.314Z,22.20
2022-08-20T09:46:34.323Z,22.20
2022-08-20T09:47:34.289Z,22.21
2022-08-20T09:48:34.276Z,22.30
2022-08-20T09:49:34.273Z,22.39
2022-08-20T09:50:34.255Z,22.49
2022-08-20T09:51:34.267Z,22.57
2022-08-20T09:52:38.883Z,22.60
2022-08-20T09:53:35.233Z,22.64
2022-08-20T09:54:34.212Z,22.65
2022-08-20T09:55:34.209Z,22.68
2022-08-20T09:56:34.192Z,22.73
2022-08-20T09:57:34.212Z,22.73
2022-08-20T09:58:34.172Z,22.73
2022-08-20T09:59:34.161Z,22.76
2022-08-20T10:00:34.162Z,22.82
2022-08-20T10:01:34.263Z,22.86
2022-08-20T10:02:34.142Z,22.94
2022-08-20T10:03:34.121Z,22.94
2022-08-20T10:04:35.107Z,23.01
2022-08-20T10:05:34.099Z,23.05
2022-08-20T10:06:37.697Z,23.09
2022-08-20T10:07:34.096Z,23.15
2022-08-20T10:08:34.065Z,23.17
2022-08-20T10:09:34.057Z,23.20
2022-08-20T10:10:34.046Z,23.27
2022-08-20T10:11:34.038Z,23.23
2022-08-20T10:12:34.039Z,23.20
2022-08-20T10:13:34.013Z,23.28
2022-08-20T10:14:34.001Z,23.36
2022-08-20T10:15:33.994Z,23.43
2022-08-20T10:16:33.980Z,23.51
2022-08-20T10:17:33.984Z,23.60
2022-08-20T10:18:33.961Z,23.69
2022-08-20T10:19:33.971Z,23.78
2022-08-20T10:20:33.939Z,23.83
2022-08-20T10:21:38.462Z,23.93
2022-08-20T10:22:34.892Z,24.02
2022-08-20T10:23:33.912Z,24.12
2022-08-20T10:24:33.901Z,24.12
2022-08-20T10:25:33.893Z,24.09
2022-08-20T10:26:33.877Z,24.08
2022-08-20T10:27:33.881Z,24.08
2022-08-20T10:28:33.856Z,24.06
2022-08-20T10:29:33.846Z,24.08
2022-08-20T10:30:33.836Z,23.95
2022-08-20T10:31:33.829Z,23.97
2022-08-20T10:32:33.829Z,23.95
2022-08-20T10:33:33.806Z,24.02
2022-08-20T10:34:33.796Z,24.09
2022-08-20T10:35:33.785Z,24.18
2022-08-20T10:36:33.780Z,24.27
2022-08-20T10:37:33.783Z,24.35
2022-08-20T10:38:33.751Z,24.43
2022-08-20T10:39:33.795Z,24.43
2022-08-20T10:40:33.732Z,24.31
2022-08-20T10:41:38.344Z,24.16
2022-08-20T10:42:37.018Z,23.95
2022-08-20T10:43:34.703Z,23.68
2022-08-20T10:44:33.689Z,23.46
2022-08-20T10:45:33.684Z,23.31
2022-08-20T10:46:34.402Z,23.25
2022-08-20T10:47:33.691Z,23.32
2022-08-20T10:48:33.650Z,23.39
2022-08-20T10:49:33.642Z,23.43
2022-08-20T10:50:33.628Z,23.46
2022-08-20T10:51:33.637Z,23.50
2022-08-20T10:52:33.617Z,23.58
2022-08-20T10:53:33.598Z,23.68
2022-08-20T10:54:33.583Z,23.79
2022-08-20T10:55:33.579Z,23.91
2022-08-20T10:56:34.396Z,24.08
2022-08-20T10:57:33.566Z,24.21
2022-08-20T10:58:37.507Z,24.37
2022-08-20T10:59:34.535Z,24.43
2022-08-20T11:00:33.524Z,24.42
2022-08-20T11:01:36.664Z,24.40
2022-08-20T11:02:33.532Z,24.37
2022-08-20T11:03:33.490Z,24.32
2022-08-20T11:04:33.479Z,24.24
2022-08-20T11:05:33.469Z,24.13
2022-08-20T11:06:33.457Z,23.95
2022-08-20T11:07:50.506Z,23.84
2022-08-20T11:08:36.009Z,23.78
2022-08-20T11:09:33.429Z,23.75
2022-08-20T11:10:33.422Z,23.65
2022-08-20T11:11:33.409Z,23.58
2022-08-20T11:12:33.409Z,23.51
2022-08-20T11:13:33.394Z,23.55
2022-08-20T11:14:33.377Z,23.70
2022-08-20T11:15:33.367Z,23.84
2022-08-20T11:16:33.352Z,23.84
2022-08-20T11:17:33.361Z,23.79
2022-08-20T11:18:33.334Z,23.75
2022-08-20T11:19:33.324Z,23.76
2022-08-20T11:20:33.313Z,23.73
2022-08-20T11:21:33.302Z,23.70
2022-08-20T11:22:33.305Z,23.65
2022-08-20T11:23:33.283Z,23.63
2022-08-20T11:24:33.282Z,23.58
2022-08-20T11:25:33.918Z,23.58
2022-08-20T11:26:33.251Z,23.55
2022-08-20T11:27:33.241Z,23.46
2022-08-20T11:28:33.251Z,23.40
2022-08-20T11:29:34.089Z,23.39
2022-08-20T11:30:33.208Z,23.40
2022-08-20T11:31:33.202Z,23.53
2022-08-20T11:32:33.201Z,23.61
2022-08-20T11:33:33.185Z,23.58
2022-08-20T11:34:33.175Z,23.76
2022-08-20T11:35:50.093Z,23.93
2022-08-20T11:36:34.143Z,24.06
2022-08-20T11:37:33.137Z,24.18
2022-08-20T11:38:33.138Z,24.24
2022-08-20T11:39:33.211Z,24.35
2022-08-20T11:40:33.106Z,24.49
2022-08-20T11:41:33.094Z,24.64
2022-08-20T11:42:33.082Z,24.73
2022-08-20T11:43:33.091Z,24.83
2022-08-20T11:44:33.074Z,24.88
2022-08-20T11:45:33.056Z,24.98
2022-08-20T11:46:33.039Z,25.03
2022-08-20T11:47:33.041Z,25.10
2022-08-20T11:48:33.022Z,25.15
2022-08-20T11:49:33.011Z,25.23
2022-08-20T11:50:32.998Z,25.36
2022-08-20T11:51:34.688Z,25.43
2022-08-20T11:52:33.996Z,25.30
2022-08-20T11:53:32.968Z,25.20
2022-08-20T11:54:32.959Z,25.08
2022-08-20T11:55:32.952Z,24.87
2022-08-20T11:56:32.942Z,24.60
2022-08-20T11:57:32.948Z,24.37
2022-08-20T11:58:32.918Z,24.45
2022-08-20T11:59:32.903Z,24.50
2022-08-20T12:00:34.197Z,24.61
2022-08-20T12:01:32.893Z,24.69
2022-08-20T12:02:33.067Z,24.73
2022-08-20T12:03:32.862Z,24.62
2022-08-20T12:04:33.902Z,24.47
2022-08-20T12:05:32.847Z,24.24
2022-08-20T12:06:32.834Z,24.09
2022-08-20T12:07:32.822Z,24.15
2022-08-20T12:08:32.831Z,24.28
2022-08-20T12:09:32.804Z,24.43
2022-08-20T12:10:32.792Z,24.45
2022-08-20T12:11:32.828Z,24.45
2022-08-20T12:12:32.773Z,24.58
2022-08-20T12:13:47.376Z,24.67
2022-08-20T12:14:33.774Z,24.78
2022-08-20T12:15:32.740Z,24.84
2022-08-20T12:16:32.733Z,24.93
2022-08-20T12:17:32.720Z,25.03
2022-08-20T12:18:32.735Z,25.14
2022-08-20T12:19:32.714Z,25.28
2022-08-20T12:20:32.692Z,25.38
2022-08-20T12:21:32.679Z,25.45
2022-08-20T12:22:32.667Z,25.55
2022-08-20T12:23:32.670Z,25.69
2022-08-20T12:24:32.648Z,25.80
2022-08-20T12:25:32.638Z,25.76
2022-08-20T12:26:32.627Z,25.82
2022-08-20T12:27:33.437Z,25.77
2022-08-20T12:28:32.622Z,25.76
2022-08-20T12:29:32.596Z,25.61
2022-08-20T12:30:32.588Z,25.38
2022-08-20T12:31:32.577Z,25.27
2022-08-20T12:32:32.566Z,25.40
2022-08-20T12:33:32.572Z,25.50
2022-08-20T12:34:32.551Z,25.58
2022-08-20T12:35:32.536Z,25.64
2022-08-20T12:36:32.529Z,25.72
2022-08-20T12:37:32.516Z,25.77
2022-08-20T12:38:32.518Z,25.79
2022-08-20T12:39:32.494Z,25.75
2022-08-20T12:40:33.197Z,25.79
2022-08-20T12:41:32.472Z,25.85
2022-08-20T12:42:32.464Z,25.91
2022-08-20T12:43:32.471Z,25.99
2022-08-20T12:44:32.446Z,25.99
2022-08-20T12:45:32.430Z,26.10
2022-08-20T12:46:32.422Z,26.18
2022-08-20T12:47:32.410Z,26.25
2022-08-20T12:48:32.422Z,26.21
2022-08-20T12:49:32.390Z,26.28
2022-08-20T12:50:32.382Z,26.28
2022-08-20T12:51:32.369Z,26.30
2022-08-20T12:52:32.359Z,26.21